createdAt,value
2023-03-14T00:00:07.858Z,942.5234375
2023-03-14T00:01:09.188Z,942.4542236
2023-03-14T00:02:09.574Z,942.4515381
2023-03-14T00:03:10.814Z,942.4191895
2023-03-14T00:04:11.257Z,942.3549805
2023-03-14T00:05:11.678Z,942.2502441
2023-03-14T00:06:13.137Z,942.1810913
2023-03-14T00:07:13.481Z,942.0767212
2023-03-14T00:08:13.895Z,942.1896973
2023-03-14T00:09:14.329Z,942.1553955
2023-03-14T00:10:14.744Z,942.0648193
2023-03-14T00:11:15.233Z,941.9221802
2023-03-14T00:12:15.524Z,941.8439331
2023-03-14T00:13:15.958Z,941.7701416
2023-03-14T00:14:16.415Z,941.5509644
2023-03-14T00:15:16.830Z,941.4481201
2023-03-14T00:16:18.148Z,941.4328613
2023-03-14T00:17:18.476Z,941.4351807
2023-03-14T00:18:18.864Z,941.3963013
2023-03-14T00:19:19.316Z,941.4190063
2023-03-14T00:20:19.754Z,941.4018555
2023-03-14T00:21:20.182Z,941.4358521
2023-03-14T00:22:20.601Z,941.4449463
2023-03-14T00:23:21.016Z,941.3482666
2023-03-14T00:24:21.431Z,941.4120483
2023-03-14T00:25:21.911Z,941.3318481
2023-03-14T00:26:23.146Z,941.3261108
2023-03-14T00:27:23.548Z,941.3109131
2023-03-14T00:28:23.944Z,941.3584595
2023-03-14T00:29:24.316Z,941.3804932
2023-03-14T00:30:24.799Z,941.4121094
2023-03-14T00:31:26.090Z,941.4370117
2023-03-14T00:32:26.624Z,941.4922485
2023-03-14T00:33:26.992Z,941.5601807
2023-03-14T00:34:27.397Z,941.6972046
2023-03-14T00:35:28.760Z,941.7782593
2023-03-14T00:36:30.213Z,941.8384399
2023-03-14T00:38:01.044Z,941.9266357
2023-03-14T00:39:01.479Z,941.9098511
2023-03-14T00:40:01.885Z,941.9000854
2023-03-14T00:41:02.370Z,941.8881226
2023-03-14T00:42:02.897Z,941.8964233
2023-03-14T00:43:03.290Z,941.9223633
2023-03-14T00:44:03.691Z,941.8989258
2023-03-14T00:45:04.122Z,941.9428711
2023-03-14T00:46:04.568Z,941.9622803
2023-03-14T00:47:05.825Z,941.9425049
2023-03-14T00:48:06.193Z,941.9295044
2023-03-14T00:49:06.591Z,941.9562378
2023-03-14T00:50:07.176Z,941.9224854
2023-03-14T00:51:07.615Z,941.8817139
2023-03-14T00:52:08.069Z,941.9181519
2023-03-14T00:53:08.505Z,941.9795532
2023-03-14T00:54:09.028Z,941.946106
2023-03-14T00:55:09.448Z,941.9695435
2023-03-14T00:56:09.911Z,941.9924927
2023-03-14T00:57:10.404Z,941.9949951
2023-03-14T00:58:10.820Z,941.975769
2023-03-14T00:59:11.324Z,941.9695435
2023-03-14T01:00:12.284Z,941.9598389
2023-03-14T01:01:12.721Z,941.9318848
2023-03-14T01:02:13.237Z,941.8687744
2023-03-14T01:03:13.670Z,941.8981323
2023-03-14T01:04:13.939Z,941.8950806
2023-03-14T01:05:14.378Z,941.9176636
2023-03-14T01:06:14.837Z,941.8984985
2023-03-14T01:07:15.829Z,941.9172363
2023-03-14T01:08:16.188Z,941.9708862
2023-03-14T01:09:16.567Z,942.0585327
2023-03-14T01:10:16.984Z,942.024353
2023-03-14T01:11:17.428Z,941.9802856
2023-03-14T01:12:17.855Z,942.0015869
2023-03-14T01:13:18.366Z,942.012207
2023-03-14T01:14:18.776Z,941.9784546
2023-03-14T01:15:19.166Z,941.9702148
2023-03-14T01:16:19.656Z,941.8886108
2023-03-14T01:17:20.894Z,941.8823242
2023-03-14T01:18:21.211Z,941.9690552
2023-03-14T01:19:21.630Z,941.9603271
2023-03-14T01:20:22.743Z,941.9715576
2023-03-14T01:21:23.145Z,941.9818726
2023-03-14T01:22:23.598Z,941.9771118
2023-03-14T01:23:23.961Z,941.9311523
2023-03-14T01:24:24.431Z,941.8596802
2023-03-14T01:25:24.880Z,941.8671265
2023-03-14T01:26:25.266Z,941.8467407
2023-03-14T01:27:26.298Z,941.8710327
2023-03-14T01:28:26.689Z,941.8331299
2023-03-14T01:29:27.120Z,941.8182983
2023-03-14T01:30:27.503Z,941.8473511
2023-03-14T01:31:28.032Z,941.8085327
2023-03-14T01:32:29.087Z,941.8379517
2023-03-14T01:33:29.452Z,941.7473145
2023-03-14T01:35:00.318Z,941.7148438
2023-03-14T01:36:00.792Z,941.7285156
2023-03-14T01:37:02.052Z,941.6912231
2023-03-14T01:38:02.720Z,941.7156372
2023-03-14T01:39:03.162Z,941.6637573
2023-03-14T01:40:03.636Z,941.6126709
2023-03-14T01:41:04.122Z,941.5454712
2023-03-14T01:42:04.540Z,941.5354614
2023-03-14T01:43:04.984Z,941.498291
2023-03-14T01:44:05.332Z,941.4381104
2023-03-14T01:45:05.740Z,941.4138794
2023-03-14T01:46:06.364Z,941.3897095
2023-03-14T01:47:07.560Z,941.3848267
2023-03-14T01:48:07.993Z,941.3909302
2023-03-14T01:49:08.368Z,941.3894043
2023-03-14T01:50:08.767Z,941.3894653
2023-03-14T01:51:09.162Z,941.3602905
2023-03-14T01:52:09.572Z,941.3512573
2023-03-14T01:53:10.013Z,941.319519
2023-03-14T01:54:11.254Z,941.2759399
2023-03-14T01:55:11.642Z,941.3234863
2023-03-14T01:56:12.077Z,941.3535767
2023-03-14T01:57:12.534Z,941.3914795
2023-03-14T01:58:13.067Z,941.4144287
2023-03-14T01:59:13.386Z,941.4328003
2023-03-14T02:00:13.780Z,941.4004517
2023-03-14T02:01:14.243Z,941.4110718
2023-03-14T02:02:14.562Z,941.4298706
2023-03-14T02:03:15.149Z,941.3900146
2023-03-14T02:04:15.495Z,941.3877563
2023-03-14T02:05:15.874Z,941.3920288
2023-03-14T02:06:16.289Z,941.3158569
2023-03-14T02:07:17.557Z,941.3637695
2023-03-14T02:08:17.990Z,941.3782959
2023-03-14T02:09:18.417Z,941.3604736
2023-03-14T02:10:18.809Z,941.3215332
2023-03-14T02:11:19.239Z,941.2312622
2023-03-14T02:12:19.632Z,941.2554932
2023-03-14T02:13:20.065Z,941.2045288
2023-03-14T02:14:20.436Z,941.1607666
2023-03-14T02:15:20.869Z,941.1367188
2023-03-14T02:16:21.352Z,941.0839233
2023-03-14T02:17:22.559Z,940.9983521
2023-03-14T02:18:23.088Z,941.0064087
2023-03-14T02:19:23.407Z,940.9804688
2023-03-14T02:20:23.860Z,940.9701538
2023-03-14T02:21:24.309Z,940.8759155
2023-03-14T02:22:24.730Z,940.8492432
2023-03-14T02:23:25.308Z,940.8566895
2023-03-14T02:24:25.634Z,940.8476563
2023-03-14T02:25:26.090Z,940.8305664
2023-03-14T02:26:26.489Z,940.8782959
2023-03-14T02:27:27.557Z,940.8562622
2023-03-14T02:28:28.025Z,940.8754883
2023-03-14T02:29:28.391Z,940.84375
2023-03-14T02:30:29.299Z,940.835083
2023-03-14T02:32:00.050Z,940.8457031
2023-03-14T02:33:01.282Z,940.8456421
2023-03-14T02:34:01.923Z,940.8102417
2023-03-14T02:35:02.511Z,940.7996826
2023-03-14T02:36:02.949Z,940.8079834
2023-03-14T02:37:03.317Z,940.748291
2023-03-14T02:38:04.296Z,940.7824707
2023-03-14T02:39:04.734Z,940.7575073
2023-03-14T02:40:05.164Z,940.7078857
2023-03-14T02:41:05.570Z,940.6968994
2023-03-14T02:42:05.988Z,940.7722168
2023-03-14T02:43:06.424Z,940.6555176
2023-03-14T02:44:06.885Z,940.6482544
2023-03-14T02:45:07.307Z,940.6443481
2023-03-14T02:46:07.789Z,940.5578003
2023-03-14T02:47:08.241Z,940.4972534
2023-03-14T02:48:09.283Z,940.4152832
2023-03-14T02:49:09.724Z,940.3709106
2023-03-14T02:50:10.214Z,940.4000244
2023-03-14T02:51:10.698Z,940.3986206
2023-03-14T02:52:11.138Z,940.4073486
2023-03-14T02:53:11.573Z,940.4528198
2023-03-14T02:54:11.989Z,940.4187622
2023-03-14T02:55:12.484Z,940.3817749
2023-03-14T02:56:12.914Z,940.4085693
2023-03-14T02:57:13.310Z,940.3535156
2023-03-14T02:58:14.257Z,940.3511963
2023-03-14T02:59:14.754Z,940.3147583
2023-03-14T03:00:15.141Z,940.2962646
2023-03-14T03:01:15.733Z,940.3577881
2023-03-14T03:02:16.092Z,940.3466187
2023-03-14T03:03:17.367Z,940.3010864
2023-03-14T03:04:17.857Z,940.3586426
2023-03-14T03:05:18.163Z,940.3433838
2023-03-14T03:06:18.545Z,940.3345337
2023-03-14T03:07:19.025Z,940.3693848
2023-03-14T03:08:20.362Z,940.3914185
2023-03-14T03:09:20.918Z,940.3582764
2023-03-14T03:10:21.227Z,940.3624268
2023-03-14T03:11:21.631Z,940.2935791
2023-03-14T03:12:22.062Z,940.2545166
2023-03-14T03:13:22.543Z,940.2521973
2023-03-14T03:14:23.898Z,940.2595215
2023-03-14T03:15:24.228Z,940.2440796
2023-03-14T03:16:24.676Z,940.2206421
2023-03-14T03:17:25.042Z,940.2157593
2023-03-14T03:18:25.482Z,940.1810913
2023-03-14T03:19:25.905Z,940.1754761
2023-03-14T03:20:26.358Z,940.1754761
2023-03-14T03:21:26.754Z,940.0865479
2023-03-14T03:22:27.167Z,940.1481323
2023-03-14T03:23:27.621Z,940.1870117
2023-03-14T03:24:28.555Z,940.1634521
2023-03-14T03:25:59.205Z,940.1034546
2023-03-14T03:26:59.600Z,940.1592407
